AirNav   Everest Fuels
 
 1445 users online  

4R1 I H Bass Jr Memorial Airport
Lumberton, Mississippi, USA

GOING TO LUMBERTON?


FAA INFORMATION EFFECTIVE 16 JUNE 2022

Location

FAA Identifier: 4R1
Lat/Long: 31-00-55.2000N 089-28-57.2000W
31-00.920000N 089-28.953333W
31.0153333,-89.4825556
(estimated)
Elevation: 310 ft. / 94.5 m (surveyed)
Variation: 02E (1985)
From city: 2 miles NW of LUMBERTON, MS
Time zone: UTC -5 (UTC -6 during Standard Time)
Zip code: 39455

Airport Operations

Airport use: Open to the public
Control tower: no
ARTCC: HOUSTON CENTER
FSS: GREENWOOD FLIGHT SERVICE STATION
NOTAMs facility: GWO (NOTAM-D service available)
Attendance: UNATNDD
Wind indicator: lighted
Segmented circle: yes
Lights: ACTVT PAPI RWY 14 & 32; MIRL RWY 14/32 - CTAF.
Beacon: white-green (lighted land airport)
Operates sunset to sunrise.

Airport Communications

CTAF/UNICOM: 122.8
WX ASOS at HBG (19 nm NE): 135.425 (601-544-2185)

Airport Services

Parking: tiedowns
Airframe service: NONE
Powerplant service: NONE
Bottled oxygen: NONE
Bulk oxygen: NONE

Runway Information

Runway 14/32

Dimensions: 3000 x 75 ft. / 914 x 23 m
Surface: asphalt, in fair condition
Weight bearing capacity: 
Single wheel: 22.0
Runway edge lights: medium intensity
RUNWAY 14  RUNWAY 32
Latitude: 31-01.120273N31-00.718557N
Longitude: 089-29.120773W089-28.785013W
Elevation: 305.0 ft.301.0 ft.
Traffic pattern: leftleft
Runway heading: 142 magnetic, 144 true322 magnetic, 324 true
Markings: basic, in good conditionbasic, in good condition
Visual slope indicator: 2-light PAPI on left2-light PAPI on left
Obstructions: 66 ft. trees, 1520 ft. from runway, 20:1 slope to clear40 ft. trees, 1000 ft. from runway, 75 ft. left of centerline, 20:1 slope to clear

Airport Ownership and Management from official FAA records

Ownership: Publicly-owned
Owner: CITY OF LUMBERTON
PO BOX 211
LUMBERTON, MS 39455
Phone 601-796-8341
Manager: KEENON C JOHNSON
102 EAST MAIN ST
LUMBERTON, MS 39455
Phone 601-796-8341
QUINCY ROGERS.

Airport Operational Statistics

Aircraft based on the field: 3
Single engine airplanes: 3
    
Aircraft operations: avg 98/week *
83% local general aviation
17% transient general aviation
* for 12-month period ending 22 April 2022

Additional Remarks

FOR CD CTC HOUSTON ARTCC AT 281-230-5622.
PILOTS MUST PRVD THEIR OWN TIEDOWN ROPES.

Instrument Procedures

There are no published instrument procedures at 4R1.

Some nearby airports with instrument procedures:

M13 - Poplarville/Pearl River County Airport (14 nm S)
KHBG - Hattiesburg Bobby L Chain Municipal Airport (19 nm NE)
KBXA - George R Carr Memorial Air Field (23 nm SW)
0R0 - Columbia/Marion County Airport (24 nm NW)
KPIB - Hattiesburg/Laurel Regional Airport (28 nm N)
 
Loc | Ops | Rwys | IFR | FBO | Links
Com | Nav | Svcs | Stats | Notes
Area around 4R1 (I H Bass Jr Memorial Airport)
 
Road maps at: MapQuest Bing Google
 
Aerial photo
WARNING: Photo may not be current or correct
Aerial photo of 4R1 (I H Bass Jr Memorial Airport)
Photo by Joel A Brightbill
Photo taken 30-Jul-2019
looking southeast.

Do you have a better or more recent aerial photo of I H Bass Jr Memorial Airport that you would like to share? If so, please send us your photo.

 
Sectional chart

 
Airport distance calculator
Flying to I H Bass Jr Memorial Airport? Find the distance to fly.

From to 4R1

Sunrise and sunset
Times for 28-Jun-2022
 Local
(UTC-5)
 Zulu
(UTC)
Morning civil twilight05:3010:30
Sunrise05:5810:58
Sunset20:0401:04
Evening civil twilight20:3201:32

Current date and time
Zulu (UTC)  28-Jun-2022 21:34:32
Local (UTC-5)  28-Jun-2022 16:34:32
 
METAR
KHBG 
19nm NE 
282053Z AUTO VRB06KT 10SM CLR 33/22 A3003 RMK AO2 LTG DSNT S SLP167 T03330217 56021
KBXA 
23nm SW 
282115Z AUTO 00000KT 10SM CLR 25/22 A3002 RMK AO2 T02540221
K0R0 
24nm NW 
282115Z AUTO 01008G13KT 330V050 10SM CLR 32/21 A3006 RMK AO2 LTG DSNT SE-SW
KLUL 
28nm N 
282115Z AUTO 01010KT 10SM CLR 31/20 A3005 RMK A02 T03060205
KPIB 
28nm N 
282056Z AUTO 36010KT 10SM FEW043 33/24 A3005 RMK AO2 SLP174 60001 T03280244 56019
KMJD 
33nm S 
282115Z AUTO 00000G10KT 1SM TSRA HZ FEW003 SCT048 BKN060 24/21 A3001 RMK AO2 LTG DSNT ALQDS VIS 1/2V4
TAF
KHBG 
19nm NE 
281727Z 2818/2918 07007KT P6SM VCSH SCT035 SCT070 FM282000 05005KT P6SM -TSRA BKN035CB BKN070 FM290000 00000KT P6SM SCT070 BKN120 FM291500 11004KT P6SM BKN050 BKN100
NOTAMs
Click for the latest NOTAMs
NOTAMs are issued by the DoD/FAA and will open in a separate window not controlled by AirNav.

 

 
 

Would you like to see your business listed on this page?

 If your business provides an interesting product or service to pilots, flight crews, aircraft, or users of the I H Bass Jr Memorial Airport, you should consider listing it here.  To start the listing process, click on the button below
 
Add a business
 

Other Pages about I H Bass Jr Memorial Airport

Update a link
 
Copyright © AirNav, LLC. All rights reserved. Privacy Policy  Contact